createdAt,value
2019-05-09T00:00:08.873Z,3.10
2019-05-09T00:02:38.057Z,2.97
2019-05-09T00:05:05.182Z,3.53
2019-05-09T00:07:53.236Z,3.00
2019-05-09T00:10:42.068Z,3.10
2019-05-09T00:13:09.004Z,3.07
2019-05-09T00:15:55.653Z,3.00
2019-05-09T00:18:23.282Z,3.03
2019-05-09T00:20:56.513Z,3.20
2019-05-09T00:23:23.968Z,3.07
2019-05-09T00:25:53.575Z,2.80
2019-05-09T00:28:20.140Z,2.73
2019-05-09T00:30:56.774Z,3.10
2019-05-09T00:33:26.994Z,2.83
2019-05-09T00:35:54.128Z,2.90
2019-05-09T00:38:23.976Z,3.07
2019-05-09T00:40:58.411Z,2.93
2019-05-09T00:43:20.809Z,3.03
2019-05-09T00:46:07.406Z,3.50
2019-05-09T00:48:54.085Z,3.40
2019-05-09T00:51:23.133Z,2.50
2019-05-09T00:53:50.186Z,2.93
2019-05-09T00:56:17.192Z,3.30
2019-05-09T00:58:44.777Z,3.37
2019-05-09T01:01:13.320Z,3.40
2019-05-09T01:03:43.118Z,3.80
2019-05-09T01:06:10.191Z,4.40
2019-05-09T01:08:37.758Z,4.03
2019-05-09T01:11:12.122Z,4.60
2019-05-09T01:13:34.499Z,3.87
2019-05-09T01:16:04.056Z,3.70
2019-05-09T01:18:30.632Z,3.70
2019-05-09T01:20:57.581Z,3.67
2019-05-09T01:23:24.705Z,3.27
2019-05-09T01:25:52.980Z,3.40
2019-05-09T01:28:20.305Z,2.97
2019-05-09T01:30:48.091Z,3.20
2019-05-09T01:33:49.662Z,3.07
2019-05-09T01:36:17.399Z,3.43
2019-05-09T01:39:04.646Z,3.27
2019-05-09T01:41:34.045Z,3.43
2019-05-09T01:44:00.785Z,3.13
2019-05-09T01:46:47.466Z,3.30
2019-05-09T01:52:00.069Z,3.10
2019-05-09T01:54:27.703Z,3.50
2019-05-09T01:56:55.300Z,3.37
2019-05-09T01:59:24.293Z,3.53
2019-05-09T02:02:11.079Z,3.53
2019-05-09T02:04:38.424Z,3.43
2019-05-09T02:07:05.805Z,3.30
2019-05-09T02:09:34.334Z,3.27
2019-05-09T02:12:03.793Z,3.43
2019-05-09T02:14:36.976Z,3.30
2019-05-09T02:17:33.395Z,3.43
2019-05-09T02:20:01.088Z,2.93
2019-05-09T02:22:34.802Z,3.23
2019-05-09T02:25:04.357Z,3.47
2019-05-09T02:27:33.210Z,3.13
2019-05-09T02:30:00.578Z,3.30
2019-05-09T02:32:27.674Z,3.10
2019-05-09T02:35:14.504Z,3.67
2019-05-09T02:37:41.757Z,4.10
2019-05-09T02:40:09.979Z,3.50
2019-05-09T02:42:39.659Z,3.67
2019-05-09T02:45:08.318Z,3.60
2019-05-09T02:47:49.168Z,3.17
2019-05-09T02:50:19.566Z,3.10
2019-05-09T02:52:48.491Z,2.90
2019-05-09T02:55:14.800Z,2.60
2019-05-09T02:57:42.347Z,2.40
2019-05-09T03:00:20.197Z,2.63
2019-05-09T03:03:20.909Z,2.50
2019-05-09T03:05:48.923Z,2.50
2019-05-09T03:08:38.321Z,2.27
2019-05-09T03:11:05.250Z,2.30
2019-05-09T03:13:32.768Z,2.33
2019-05-09T03:16:08.563Z,2.43
2019-05-09T03:18:38.697Z,2.23
2019-05-09T03:21:31.080Z,2.63
2019-05-09T03:24:18.673Z,2.50
2019-05-09T03:26:59.577Z,2.60
2019-05-09T03:29:39.669Z,2.33
2019-05-09T03:32:29.567Z,2.40
2019-05-09T03:34:57.952Z,3.20
2019-05-09T03:37:25.349Z,2.67
2019-05-09T03:39:52.490Z,2.60
2019-05-09T03:42:23.076Z,2.53
2019-05-09T03:44:48.383Z,2.70
2019-05-09T03:47:37.693Z,3.20
2019-05-09T03:50:24.412Z,2.57
2019-05-09T03:52:51.908Z,2.63
2019-05-09T03:55:38.501Z,2.60
2019-05-09T03:58:17.643Z,2.80
2019-05-09T04:00:44.609Z,2.60
2019-05-09T04:03:12.148Z,2.70
2019-05-09T04:05:39.419Z,2.90
2019-05-09T04:08:18.272Z,3.13
2019-05-09T04:10:50.163Z,2.60
2019-05-09T04:13:18.115Z,2.50
2019-05-09T04:16:04.856Z,2.60
2019-05-09T04:18:32.095Z,2.60
2019-05-09T04:20:59.796Z,2.93
2019-05-09T04:23:27.597Z,2.90
2019-05-09T04:26:10.760Z,2.60
2019-05-09T04:28:39.726Z,2.50
2019-05-09T04:31:28.021Z,2.60
2019-05-09T04:34:09.741Z,2.47
2019-05-09T04:36:40.115Z,2.23
2019-05-09T04:39:12.578Z,2.30
2019-05-09T04:41:39.569Z,3.30
2019-05-09T04:44:16.509Z,2.30
2019-05-09T04:46:37.816Z,2.83
2019-05-09T04:49:24.620Z,2.50
2019-05-09T04:51:51.764Z,2.20
2019-05-09T04:54:19.292Z,1.97
2019-05-09T04:56:47.489Z,2.30
2019-05-09T04:59:14.710Z,2.40
2019-05-09T05:02:00.411Z,2.30
2019-05-09T05:04:28.331Z,2.20
2019-05-09T05:06:57.857Z,2.40
2019-05-09T05:09:27.585Z,2.20
2019-05-09T05:11:54.157Z,2.17
2019-05-09T05:14:21.174Z,2.30
2019-05-09T05:16:53.261Z,2.47
2019-05-09T05:19:19.637Z,2.43
2019-05-09T05:21:48.085Z,2.27
2019-05-09T05:24:20.328Z,2.37
2019-05-09T05:27:08.587Z,2.83
2019-05-09T05:29:58.098Z,3.13
2019-05-09T05:32:34.522Z,2.57
2019-05-09T05:35:09.567Z,2.47
2019-05-09T05:37:38.722Z,2.57
2019-05-09T05:40:07.764Z,2.30
2019-05-09T05:42:35.217Z,2.20
2019-05-09T05:45:02.354Z,2.33
2019-05-09T05:47:42.189Z,2.70
2019-05-09T05:50:09.483Z,2.77
2019-05-09T05:52:37.547Z,2.53
2019-05-09T05:55:07.418Z,2.60
2019-05-09T05:57:38.536Z,2.40
2019-05-09T06:00:07.889Z,3.00
2019-05-09T06:02:38.325Z,2.53
2019-05-09T06:05:08.292Z,2.40
2019-05-09T06:07:34.902Z,2.93
2019-05-09T06:10:21.562Z,3.20
2019-05-09T06:12:48.701Z,2.90
2019-05-09T06:15:18.036Z,3.43
2019-05-09T06:17:45.249Z,3.13
2019-05-09T06:20:12.381Z,3.63
2019-05-09T06:22:40.086Z,2.90
2019-05-09T06:25:09.535Z,2.77
2019-05-09T06:27:37.592Z,2.97
2019-05-09T06:30:28.001Z,2.83
2019-05-09T06:32:57.844Z,2.47
2019-05-09T06:35:24.212Z,2.90
2019-05-09T06:38:11.223Z,2.70
2019-05-09T06:40:38.880Z,2.70
2019-05-09T06:43:29.055Z,3.40
2019-05-09T06:46:19.340Z,2.50
2019-05-09T06:48:47.945Z,2.60
2019-05-09T06:51:18.906Z,2.60
2019-05-09T06:53:44.613Z,2.20
2019-05-09T06:56:12.207Z,2.47
2019-05-09T06:58:39.339Z,2.53
2019-05-09T07:01:28.387Z,2.77
2019-05-09T07:03:59.936Z,2.70
2019-05-09T07:06:31.703Z,2.60
2019-05-09T07:09:21.345Z,2.87
2019-05-09T07:11:48.804Z,2.60
2019-05-09T07:14:32.965Z,2.97
2019-05-09T07:17:18.529Z,2.67
2019-05-09T07:19:48.546Z,2.17
2019-05-09T07:22:34.643Z,3.23
2019-05-09T07:25:11.028Z,2.87
2019-05-09T07:27:38.815Z,2.70
2019-05-09T07:30:28.838Z,2.70
2019-05-09T07:33:01.149Z,2.87
2019-05-09T07:35:47.891Z,2.70
2019-05-09T07:38:27.762Z,3.53
2019-05-09T07:40:57.927Z,2.80
2019-05-09T07:43:24.845Z,2.83
2019-05-09T07:46:28.078Z,2.53
2019-05-09T07:48:57.586Z,3.20
2019-05-09T07:51:43.843Z,2.77
2019-05-09T07:54:24.009Z,3.17
2019-05-09T07:56:39.656Z,2.70
2019-05-09T07:59:27.455Z,3.37
2019-05-09T08:01:54.695Z,3.07
2019-05-09T08:04:22.119Z,3.07
2019-05-09T08:06:49.288Z,2.90
2019-05-09T08:09:18.700Z,3.53
2019-05-09T08:11:48.144Z,2.90
2019-05-09T08:14:14.707Z,3.03
2019-05-09T08:16:42.139Z,3.10
2019-05-09T08:19:09.201Z,3.40
2019-05-09T08:21:38.222Z,3.50
2019-05-09T08:24:05.367Z,3.10
2019-05-09T08:26:32.469Z,3.50
2019-05-09T08:28:59.717Z,3.70
2019-05-09T08:31:28.098Z,3.73
2019-05-09T08:34:15.247Z,3.50
2019-05-09T08:36:42.504Z,3.40
2019-05-09T08:39:09.580Z,3.57
2019-05-09T08:41:38.471Z,3.77
2019-05-09T08:44:07.849Z,4.43
2019-05-09T08:46:37.572Z,4.60
2019-05-09T08:49:04.144Z,4.77
2019-05-09T08:51:47.193Z,4.63
2019-05-09T08:54:04.243Z,4.50
2019-05-09T08:56:31.376Z,4.27
2019-05-09T08:59:02.037Z,4.40
2019-05-09T09:01:45.742Z,4.60
2019-05-09T09:03:57.699Z,5.30
2019-05-09T09:06:44.433Z,5.23
2019-05-09T09:09:11.490Z,5.00
2019-05-09T09:11:58.477Z,5.57
2019-05-09T09:14:27.902Z,5.40
2019-05-09T09:16:57.514Z,5.63
2019-05-09T09:19:24.837Z,5.53
2019-05-09T09:21:51.973Z,5.00
2019-05-09T09:24:19.006Z,4.57
2019-05-09T09:26:48.088Z,4.70
2019-05-09T09:29:17.725Z,4.47
2019-05-09T09:32:03.905Z,5.67
2019-05-09T09:34:31.784Z,6.50
2019-05-09T09:37:04.170Z,5.10
2019-05-09T09:39:31.190Z,5.93
2019-05-09T09:41:58.697Z,5.83
2019-05-09T09:44:28.517Z,6.47
2019-05-09T09:46:55.289Z,5.80
2019-05-09T09:49:41.839Z,5.93
2019-05-09T09:52:10.897Z,7.47
2019-05-09T09:54:38.617Z,9.20
2019-05-09T09:57:09.240Z,7.93
2019-05-09T10:00:04.579Z,8.37
2019-05-09T10:02:34.192Z,5.83
2019-05-09T10:05:01.957Z,5.73
2019-05-09T10:07:28.994Z,5.97
2019-05-09T10:09:58.220Z,8.17
2019-05-09T10:12:24.841Z,5.77
2019-05-09T10:14:58.860Z,7.00
2019-05-09T10:17:47.675Z,7.47
2019-05-09T10:20:23.679Z,6.87
2019-05-09T10:22:59.535Z,5.63
2019-05-09T10:25:20.278Z,5.20
2019-05-09T10:27:48.060Z,7.37
2019-05-09T10:30:15.311Z,6.43
2019-05-09T10:32:43.008Z,7.07
2019-05-09T10:35:14.680Z,7.33
2019-05-09T10:37:41.911Z,7.10
2019-05-09T10:40:28.530Z,7.87
2019-05-09T10:43:11.188Z,7.47
2019-05-09T10:46:19.018Z,13.40
2019-05-09T10:48:54.754Z,6.33
2019-05-09T10:51:41.393Z,6.20
2019-05-09T10:56:53.049Z,7.20
2019-05-09T10:59:20.278Z,4.77
2019-05-09T11:01:49.388Z,5.33
2019-05-09T11:04:17.990Z,4.40
2019-05-09T11:06:45.051Z,5.33
2019-05-09T11:09:12.474Z,4.00
2019-05-09T11:11:39.819Z,4.67
2019-05-09T11:14:35.477Z,4.80
2019-05-09T11:17:07.904Z,4.87
2019-05-09T11:19:25.171Z,4.67
2019-05-09T11:21:52.730Z,4.30
2019-05-09T11:24:19.777Z,4.00
2019-05-09T11:26:48.143Z,3.10
2019-05-09T11:29:15.708Z,3.53
2019-05-09T11:31:42.954Z,3.40
2019-05-09T11:34:10.138Z,2.70
2019-05-09T11:36:38.043Z,2.50
2019-05-09T11:39:10.244Z,3.20
2019-05-09T11:41:38.157Z,3.87
2019-05-09T11:44:04.457Z,3.03
2019-05-09T11:46:32.186Z,3.47
2019-05-09T11:48:59.361Z,3.13
2019-05-09T11:51:29.081Z,3.10
2019-05-09T11:53:57.956Z,3.17
2019-05-09T11:56:25.435Z,2.67
2019-05-09T11:58:52.437Z,2.70
2019-05-09T12:01:20.018Z,3.33
2019-05-09T12:03:51.510Z,3.13
2019-05-09T12:06:19.664Z,2.90
2019-05-09T12:08:48.073Z,3.03
2019-05-09T12:11:17.854Z,3.50
2019-05-09T12:13:43.970Z,3.70
2019-05-09T12:16:11.556Z,3.90
2019-05-09T12:18:52.678Z,4.77
2019-05-09T12:21:19.988Z,5.23
2019-05-09T12:24:09.086Z,4.00
2019-05-09T12:26:38.802Z,4.13
2019-05-09T12:29:04.805Z,4.87
2019-05-09T12:31:51.413Z,4.70
2019-05-09T12:37:03.609Z,4.00
2019-05-09T12:39:30.842Z,3.80
2019-05-09T12:41:58.055Z,3.87
2019-05-09T12:44:28.609Z,3.63
2019-05-09T12:47:14.320Z,3.70
2019-05-09T12:49:42.082Z,3.70
2019-05-09T12:52:09.523Z,3.97
2019-05-09T12:54:38.644Z,4.13
2019-05-09T12:57:08.090Z,3.30
2019-05-09T12:59:48.221Z,3.40
2019-05-09T13:02:03.917Z,3.37
2019-05-09T13:04:31.034Z,4.17
2019-05-09T13:06:59.000Z,3.40
2019-05-09T13:09:28.437Z,3.47
2019-05-09T13:12:14.811Z,3.90
2019-05-09T13:15:01.625Z,4.43
2019-05-09T13:17:33.673Z,4.27
2019-05-09T13:20:02.027Z,4.43
2019-05-09T13:22:29.317Z,4.23
2019-05-09T13:25:18.513Z,3.40
2019-05-09T13:27:47.720Z,3.60
2019-05-09T13:30:14.062Z,3.60
2019-05-09T13:32:41.059Z,3.63
2019-05-09T13:35:08.504Z,3.40
2019-05-09T13:37:38.049Z,2.90
2019-05-09T13:40:04.741Z,2.80
2019-05-09T13:42:32.374Z,2.67
2019-05-09T13:45:20.788Z,3.07
2019-05-09T13:47:49.445Z,2.90
2019-05-09T13:50:18.606Z,2.80
2019-05-09T13:52:47.817Z,2.80
2019-05-09T13:55:14.416Z,2.30
2019-05-09T13:58:01.156Z,2.67
2019-05-09T14:00:28.606Z,2.03
2019-05-09T14:03:09.483Z,2.80
2019-05-09T14:08:21.618Z,2.77
2019-05-09T14:10:48.737Z,2.07
2019-05-09T14:13:15.661Z,2.33
2019-05-09T14:15:44.246Z,2.20
2019-05-09T14:18:11.595Z,2.70
2019-05-09T14:20:38.591Z,2.40
2019-05-09T14:23:11.190Z,2.33
2019-05-09T14:25:38.152Z,2.47
2019-05-09T14:28:04.798Z,2.63
2019-05-09T14:30:31.816Z,3.53
2019-05-09T14:33:00.415Z,3.10
2019-05-09T14:35:27.868Z,2.80
2019-05-09T14:37:55.195Z,3.30
2019-05-09T14:40:22.773Z,3.10
2019-05-09T14:42:49.780Z,3.33
2019-05-09T14:45:38.128Z,4.07
2019-05-09T14:48:08.015Z,3.40
2019-05-09T14:50:34.600Z,3.00
2019-05-09T14:53:02.192Z,2.93
2019-05-09T14:55:29.096Z,2.60
2019-05-09T14:57:57.850Z,3.10
2019-05-09T15:00:25.320Z,3.17
2019-05-09T15:02:52.705Z,3.03
2019-05-09T15:05:20.523Z,2.50
2019-05-09T15:07:47.728Z,2.00
2019-05-09T15:10:14.766Z,2.57
2019-05-09T15:12:42.613Z,2.13
2019-05-09T15:15:32.637Z,2.23
2019-05-09T15:17:58.500Z,3.20
2019-05-09T15:20:25.507Z,2.93
2019-05-09T15:22:52.955Z,2.20
2019-05-09T15:25:20.884Z,2.07
2019-05-09T15:27:48.828Z,2.03
2019-05-09T15:30:18.511Z,2.53
2019-05-09T15:33:04.593Z,2.20
2019-05-09T15:35:32.052Z,2.20
2019-05-09T15:37:59.621Z,2.43
2019-05-09T15:40:28.175Z,2.37
2019-05-09T15:43:15.123Z,2.03
2019-05-09T15:46:07.918Z,2.13
2019-05-09T15:48:34.717Z,2.07
2019-05-09T15:51:02.649Z,2.80
2019-05-09T15:53:29.756Z,2.90
2019-05-09T15:55:58.785Z,2.57
2019-05-09T15:58:28.600Z,2.27
2019-05-09T16:00:55.574Z,2.60
2019-05-09T16:03:22.969Z,2.43
2019-05-09T16:05:50.232Z,2.07
2019-05-09T16:08:18.695Z,2.07
2019-05-09T16:10:46.161Z,2.30
2019-05-09T16:13:13.924Z,1.80
2019-05-09T16:15:41.719Z,2.13
2019-05-09T16:18:09.029Z,2.47
2019-05-09T16:20:40.346Z,1.93
2019-05-09T16:23:08.417Z,2.20
2019-05-09T16:25:34.895Z,1.83
2019-05-09T16:28:02.293Z,2.20
2019-05-09T16:30:29.646Z,2.00
2019-05-09T16:32:58.608Z,2.37
2019-05-09T16:35:28.477Z,2.33
2019-05-09T16:38:05.212Z,1.90
2019-05-09T16:40:24.996Z,2.33
2019-05-09T16:43:18.044Z,2.90
2019-05-09T16:45:47.536Z,2.00
2019-05-09T16:48:15.227Z,2.13
2019-05-09T16:50:57.801Z,2.03
2019-05-09T16:53:11.816Z,2.37
2019-05-09T16:55:39.950Z,2.90
2019-05-09T16:58:08.633Z,1.97
2019-05-09T17:00:44.792Z,2.70
2019-05-09T17:03:12.242Z,2.37
2019-05-09T17:05:39.880Z,2.60
2019-05-09T17:08:08.162Z,2.67
2019-05-09T17:10:36.001Z,3.03
2019-05-09T17:13:03.867Z,2.83
2019-05-09T17:15:32.303Z,3.30
2019-05-09T17:18:00.019Z,2.80
2019-05-09T17:20:34.205Z,3.43
2019-05-09T17:23:15.120Z,3.10
2019-05-09T17:25:40.823Z,2.57
2019-05-09T17:28:08.548Z,2.57
2019-05-09T17:30:38.371Z,3.43
2019-05-09T17:33:07.696Z,2.70
2019-05-09T17:35:34.547Z,2.60
2019-05-09T17:38:02.163Z,2.40
2019-05-09T17:40:30.904Z,3.53
2019-05-09T17:42:59.151Z,2.87
2019-05-09T17:45:26.724Z,3.10
2019-05-09T17:48:08.550Z,3.47
2019-05-09T17:50:38.632Z,3.10
2019-05-09T17:53:05.793Z,3.80
2019-05-09T17:55:33.212Z,2.57
2019-05-09T17:58:00.251Z,3.37
2019-05-09T18:00:28.080Z,2.63
2019-05-09T18:03:15.010Z,2.63
2019-05-09T18:05:42.835Z,3.10
2019-05-09T18:08:10.277Z,3.43
2019-05-09T18:10:39.007Z,3.20
2019-05-09T18:13:07.921Z,3.83
2019-05-09T18:15:37.740Z,3.83
2019-05-09T18:18:05.437Z,3.17
2019-05-09T18:20:33.181Z,3.17
2019-05-09T18:23:03.257Z,3.37
2019-05-09T18:25:31.430Z,3.80
2019-05-09T18:28:19.718Z,3.20
2019-05-09T18:30:47.840Z,3.63
2019-05-09T18:33:43.571Z,2.93
2019-05-09T18:36:11.183Z,2.97
2019-05-09T18:38:38.880Z,3.07
2019-05-09T18:41:07.905Z,3.33
2019-05-09T18:43:35.693Z,3.10
2019-05-09T18:46:08.361Z,3.67
2019-05-09T18:48:38.207Z,3.83
2019-05-09T18:51:07.333Z,3.83
2019-05-09T18:53:34.730Z,3.00
2019-05-09T18:56:02.641Z,3.60
2019-05-09T18:58:29.972Z,3.83
2019-05-09T19:00:57.348Z,3.70
2019-05-09T19:03:35.325Z,4.00
2019-05-09T19:05:56.492Z,3.50
2019-05-09T19:08:23.743Z,4.03
2019-05-09T19:10:54.008Z,3.30
2019-05-09T19:13:21.431Z,3.70
2019-05-09T19:19:08.961Z,4.40
2019-05-09T19:24:29.180Z,4.50
2019-05-09T19:26:56.229Z,5.30
2019-05-09T19:29:23.642Z,4.90
2019-05-09T19:31:51.016Z,5.73
2019-05-09T19:34:18.372Z,5.00
2019-05-09T19:36:46.025Z,4.17
2019-05-09T19:39:13.454Z,4.10
2019-05-09T19:42:00.410Z,4.40
2019-05-09T19:44:27.799Z,4.17
2019-05-09T19:46:55.692Z,4.53
2019-05-09T19:49:23.065Z,4.60
2019-05-09T19:51:50.628Z,4.77
2019-05-09T19:54:18.350Z,3.90
2019-05-09T19:56:45.693Z,4.17
2019-05-09T19:59:12.996Z,3.67
2019-05-09T20:01:40.985Z,4.47
2019-05-09T20:04:08.225Z,3.30
2019-05-09T20:06:35.491Z,3.00
2019-05-09T20:09:06.433Z,3.17
2019-05-09T20:11:56.590Z,3.77
2019-05-09T20:14:27.789Z,3.10
2019-05-09T20:17:16.622Z,3.10
2019-05-09T20:19:44.488Z,2.87
2019-05-09T20:22:13.280Z,2.90
2019-05-09T20:25:00.300Z,3.17
2019-05-09T20:27:28.209Z,3.20
2019-05-09T20:29:56.693Z,3.37
2019-05-09T20:32:24.413Z,3.00
2019-05-09T20:34:51.577Z,3.67
2019-05-09T20:37:18.713Z,3.17
2019-05-09T20:40:05.384Z,3.30
2019-05-09T20:45:31.439Z,3.63
2019-05-09T20:47:58.660Z,4.43
2019-05-09T20:50:45.321Z,4.47
2019-05-09T20:53:12.536Z,4.27
2019-05-09T20:55:39.592Z,3.63
2019-05-09T20:58:28.371Z,4.17
2019-05-09T21:00:55.550Z,4.67
2019-05-09T21:03:22.952Z,4.77
2019-05-09T21:05:50.594Z,5.27
2019-05-09T21:08:17.920Z,6.27
2019-05-09T21:10:45.326Z,6.53
2019-05-09T21:13:13.349Z,7.03
2019-05-09T21:15:40.737Z,7.53
2019-05-09T21:18:07.937Z,7.30
2019-05-09T21:20:35.908Z,7.07
2019-05-09T21:23:03.281Z,7.60
2019-05-09T21:25:33.456Z,7.53
2019-05-09T21:28:00.150Z,8.40
2019-05-09T21:30:27.637Z,8.07
2019-05-09T21:32:54.963Z,8.30
2019-05-09T21:35:22.238Z,8.37
2019-05-09T21:37:49.852Z,8.10
2019-05-09T21:40:17.213Z,7.17
2019-05-09T21:42:44.392Z,7.87
2019-05-09T21:45:12.281Z,7.97
2019-05-09T21:47:39.552Z,7.37
2019-05-09T21:50:06.989Z,8.47
2019-05-09T21:52:34.542Z,8.17
2019-05-09T21:55:01.642Z,7.83
2019-05-09T21:57:29.058Z,8.63
2019-05-09T21:59:56.842Z,7.93
2019-05-09T22:02:25.748Z,8.13
2019-05-09T22:04:53.518Z,7.97
2019-05-09T22:07:20.680Z,8.17
2019-05-09T22:09:47.956Z,8.27
2019-05-09T22:12:15.567Z,7.57
2019-05-09T22:14:42.820Z,5.70
2019-05-09T22:17:37.886Z,5.50
2019-05-09T22:20:06.743Z,4.97
2019-05-09T22:22:34.304Z,5.40
2019-05-09T22:25:02.426Z,5.33
2019-05-09T22:27:29.485Z,5.50
2019-05-09T22:29:56.976Z,4.57
2019-05-09T22:32:24.176Z,3.60
2019-05-09T22:34:51.526Z,3.67
2019-05-09T22:37:19.262Z,3.50
2019-05-09T22:39:46.629Z,4.00
2019-05-09T22:42:14.063Z,3.10
2019-05-09T22:44:43.616Z,3.30
2019-05-09T22:47:11.996Z,3.37
2019-05-09T22:49:39.316Z,3.33
2019-05-09T22:52:06.656Z,3.30
2019-05-09T22:54:34.268Z,3.73
2019-05-09T22:57:01.571Z,3.93
2019-05-09T22:59:28.949Z,4.17
2019-05-09T23:01:58.038Z,5.07
2019-05-09T23:04:25.388Z,4.70
2019-05-09T23:06:53.173Z,5.57
2019-05-09T23:09:40.417Z,5.80
2019-05-09T23:12:07.557Z,6.13
2019-05-09T23:14:34.792Z,6.10
2019-05-09T23:17:02.475Z,6.10
2019-05-09T23:19:29.630Z,5.90
2019-05-09T23:21:57.024Z,4.07
2019-05-09T23:24:28.378Z,4.93
2019-05-09T23:26:55.731Z,4.70
2019-05-09T23:29:22.943Z,4.57
2019-05-09T23:32:11.114Z,4.40
2019-05-09T23:34:39.022Z,4.10
2019-05-09T23:37:06.406Z,3.90
2019-05-09T23:39:40.636Z,4.60
2019-05-09T23:42:27.933Z,4.77
2019-05-09T23:44:55.189Z,4.10
2019-05-09T23:47:22.254Z,3.73
2019-05-09T23:49:50.053Z,3.20
2019-05-09T23:52:17.240Z,3.33
2019-05-09T23:55:03.019Z,4.10
2019-05-09T23:57:48.214Z,3.23
